sensor_id;sensor_type;location;lat;lon;timestamp;P1;durP1;ratioP1;P2;durP2;ratioP2
2646;SDS011;1333;50.958;6.770;2023-09-30T00:01:17;7.03;;;3.40;;
2646;SDS011;1333;50.958;6.770;2023-09-30T00:03:44;3.30;;;2.97;;
2646;SDS011;1333;50.958;6.770;2023-09-30T00:06:09;7.17;;;2.97;;
2646;SDS011;1333;50.958;6.770;2023-09-30T00:08:35;5.40;;;3.00;;
2646;SDS011;1333;50.958;6.770;2023-09-30T00:11:01;6.30;;;2.73;;
2646;SDS011;1333;50.958;6.770;2023-09-30T00:13:26;4.53;;;2.70;;
2646;SDS011;1333;50.958;6.770;2023-09-30T00:15:53;3.20;;;2.20;;
2646;SDS011;1333;50.958;6.770;2023-09-30T00:18:19;3.83;;;2.07;;
2646;SDS011;1333;50.958;6.770;2023-09-30T00:20:44;10.33;;;2.20;;
2646;SDS011;1333;50.958;6.770;2023-09-30T00:23:10;3.13;;;2.07;;
2646;SDS011;1333;50.958;6.770;2023-09-30T00:25:36;5.20;;;2.60;;
2646;SDS011;1333;50.958;6.770;2023-09-30T00:28:01;6.30;;;3.27;;
2646;SDS011;1333;50.958;6.770;2023-09-30T00:30:27;6.33;;;2.60;;
2646;SDS011;1333;50.958;6.770;2023-09-30T00:32:53;4.83;;;2.63;;
2646;SDS011;1333;50.958;6.770;2023-09-30T00:35:18;7.40;;;2.63;;
2646;SDS011;1333;50.958;6.770;2023-09-30T00:37:44;3.20;;;2.17;;
2646;SDS011;1333;50.958;6.770;2023-09-30T00:40:10;2.23;;;2.03;;
2646;SDS011;1333;50.958;6.770;2023-09-30T00:42:38;15.73;;;3.10;;
2646;SDS011;1333;50.958;6.770;2023-09-30T00:45:04;5.20;;;2.27;;
2646;SDS011;1333;50.958;6.770;2023-09-30T00:47:31;5.97;;;2.40;;
2646;SDS011;1333;50.958;6.770;2023-09-30T00:49:59;5.10;;;3.20;;
2646;SDS011;1333;50.958;6.770;2023-09-30T00:52:24;5.30;;;1.80;;
2646;SDS011;1333;50.958;6.770;2023-09-30T00:54:50;2.43;;;1.60;;
2646;SDS011;1333;50.958;6.770;2023-09-30T00:57:19;6.83;;;2.73;;
2646;SDS011;1333;50.958;6.770;2023-09-30T00:59:45;5.03;;;2.30;;
2646;SDS011;1333;50.958;6.770;2023-09-30T01:02:13;3.83;;;2.37;;
2646;SDS011;1333;50.958;6.770;2023-09-30T01:04:39;3.57;;;2.20;;
2646;SDS011;1333;50.958;6.770;2023-09-30T01:07:05;3.70;;;2.13;;
2646;SDS011;1333;50.958;6.770;2023-09-30T01:09:31;3.57;;;1.50;;
2646;SDS011;1333;50.958;6.770;2023-09-30T01:11:56;6.10;;;3.70;;
2646;SDS011;1333;50.958;6.770;2023-09-30T01:16:53;8.33;;;2.67;;
2646;SDS011;1333;50.958;6.770;2023-09-30T01:19:20;6.90;;;2.40;;
2646;SDS011;1333;50.958;6.770;2023-09-30T01:21:45;11.93;;;3.97;;
2646;SDS011;1333;50.958;6.770;2023-09-30T01:24:14;3.87;;;2.10;;
2646;SDS011;1333;50.958;6.770;2023-09-30T01:26:40;4.90;;;3.27;;
2646;SDS011;1333;50.958;6.770;2023-09-30T01:29:07;7.93;;;2.53;;
2646;SDS011;1333;50.958;6.770;2023-09-30T01:31:36;4.87;;;2.53;;
2646;SDS011;1333;50.958;6.770;2023-09-30T01:34:03;4.53;;;2.40;;
2646;SDS011;1333;50.958;6.770;2023-09-30T01:36:29;4.33;;;2.23;;
2646;SDS011;1333;50.958;6.770;2023-09-30T01:38:54;3.67;;;2.20;;
2646;SDS011;1333;50.958;6.770;2023-09-30T01:41:20;4.23;;;3.30;;
2646;SDS011;1333;50.958;6.770;2023-09-30T01:43:45;6.13;;;3.90;;
2646;SDS011;1333;50.958;6.770;2023-09-30T01:46:12;5.37;;;2.27;;
2646;SDS011;1333;50.958;6.770;2023-09-30T01:48:37;4.43;;;2.97;;
2646;SDS011;1333;50.958;6.770;2023-09-30T01:51:03;5.80;;;2.90;;
2646;SDS011;1333;50.958;6.770;2023-09-30T01:53:28;6.03;;;2.83;;
2646;SDS011;1333;50.958;6.770;2023-09-30T01:55:55;4.40;;;2.90;;
2646;SDS011;1333;50.958;6.770;2023-09-30T01:58:20;3.70;;;2.63;;
2646;SDS011;1333;50.958;6.770;2023-09-30T02:00:46;5.77;;;3.43;;
2646;SDS011;1333;50.958;6.770;2023-09-30T02:03:11;4.70;;;2.87;;
2646;SDS011;1333;50.958;6.770;2023-09-30T02:05:38;5.20;;;3.00;;
2646;SDS011;1333;50.958;6.770;2023-09-30T02:08:04;7.40;;;3.40;;
2646;SDS011;1333;50.958;6.770;2023-09-30T02:10:31;5.63;;;3.20;;
2646;SDS011;1333;50.958;6.770;2023-09-30T02:12:58;5.97;;;3.40;;
2646;SDS011;1333;50.958;6.770;2023-09-30T02:15:24;5.60;;;3.40;;
2646;SDS011;1333;50.958;6.770;2023-09-30T02:17:50;6.03;;;3.77;;
2646;SDS011;1333;50.958;6.770;2023-09-30T02:20:17;15.60;;;7.40;;
2646;SDS011;1333;50.958;6.770;2023-09-30T02:22:45;11.57;;;5.60;;
2646;SDS011;1333;50.958;6.770;2023-09-30T02:25:11;9.43;;;6.70;;
2646;SDS011;1333;50.958;6.770;2023-09-30T02:27:38;8.43;;;5.03;;
2646;SDS011;1333;50.958;6.770;2023-09-30T02:30:05;3.57;;;2.90;;
2646;SDS011;1333;50.958;6.770;2023-09-30T02:32:31;5.13;;;3.40;;
2646;SDS011;1333;50.958;6.770;2023-09-30T02:34:58;5.67;;;3.10;;
2646;SDS011;1333;50.958;6.770;2023-09-30T02:37:24;4.67;;;3.03;;
2646;SDS011;1333;50.958;6.770;2023-09-30T02:39:50;6.47;;;3.33;;
2646;SDS011;1333;50.958;6.770;2023-09-30T02:42:16;4.33;;;3.47;;
2646;SDS011;1333;50.958;6.770;2023-09-30T02:44:41;8.30;;;3.97;;
2646;SDS011;1333;50.958;6.770;2023-09-30T02:47:07;7.33;;;3.97;;
2646;SDS011;1333;50.958;6.770;2023-09-30T02:49:33;6.43;;;3.53;;
2646;SDS011;1333;50.958;6.770;2023-09-30T02:51:59;8.07;;;4.07;;
2646;SDS011;1333;50.958;6.770;2023-09-30T02:54:25;5.83;;;3.90;;
2646;SDS011;1333;50.958;6.770;2023-09-30T02:56:51;6.93;;;2.93;;
2646;SDS011;1333;50.958;6.770;2023-09-30T02:59:17;6.30;;;3.40;;
2646;SDS011;1333;50.958;6.770;2023-09-30T03:01:44;4.70;;;3.80;;
2646;SDS011;1333;50.958;6.770;2023-09-30T03:04:09;5.63;;;3.40;;
2646;SDS011;1333;50.958;6.770;2023-09-30T03:06:37;5.23;;;3.60;;
2646;SDS011;1333;50.958;6.770;2023-09-30T03:09:03;4.70;;;3.33;;
2646;SDS011;1333;50.958;6.770;2023-09-30T03:11:30;8.90;;;3.07;;
2646;SDS011;1333;50.958;6.770;2023-09-30T03:13:56;4.17;;;2.90;;
2646;SDS011;1333;50.958;6.770;2023-09-30T03:16:22;5.37;;;3.00;;
2646;SDS011;1333;50.958;6.770;2023-09-30T03:18:49;5.90;;;3.23;;
2646;SDS011;1333;50.958;6.770;2023-09-30T03:21:15;10.73;;;3.27;;
2646;SDS011;1333;50.958;6.770;2023-09-30T03:23:41;5.20;;;3.40;;
2646;SDS011;1333;50.958;6.770;2023-09-30T03:26:07;3.90;;;3.17;;
2646;SDS011;1333;50.958;6.770;2023-09-30T03:28:34;4.73;;;3.00;;
2646;SDS011;1333;50.958;6.770;2023-09-30T03:31:03;3.57;;;2.90;;
2646;SDS011;1333;50.958;6.770;2023-09-30T03:33:30;6.90;;;3.77;;
2646;SDS011;1333;50.958;6.770;2023-09-30T03:35:57;2.93;;;2.57;;
2646;SDS011;1333;50.958;6.770;2023-09-30T03:38:23;5.87;;;3.60;;
2646;SDS011;1333;50.958;6.770;2023-09-30T03:40:49;6.23;;;2.83;;
2646;SDS011;1333;50.958;6.770;2023-09-30T03:43:15;5.07;;;3.87;;
2646;SDS011;1333;50.958;6.770;2023-09-30T03:45:41;6.67;;;4.67;;
2646;SDS011;1333;50.958;6.770;2023-09-30T03:48:07;5.77;;;3.63;;
2646;SDS011;1333;50.958;6.770;2023-09-30T03:50:33;6.07;;;3.93;;
2646;SDS011;1333;50.958;6.770;2023-09-30T03:53:04;4.40;;;2.87;;
2646;SDS011;1333;50.958;6.770;2023-09-30T03:55:34;8.83;;;4.20;;
2646;SDS011;1333;50.958;6.770;2023-09-30T03:58:00;9.40;;;4.30;;
2646;SDS011;1333;50.958;6.770;2023-09-30T04:00:25;4.60;;;3.70;;
2646;SDS011;1333;50.958;6.770;2023-09-30T04:02:51;8.40;;;4.80;;
2646;SDS011;1333;50.958;6.770;2023-09-30T04:05:23;5.37;;;4.10;;
2646;SDS011;1333;50.958;6.770;2023-09-30T04:07:58;11.50;;;7.20;;
2646;SDS011;1333;50.958;6.770;2023-09-30T04:10:24;7.10;;;5.40;;
2646;SDS011;1333;50.958;6.770;2023-09-30T04:12:50;12.43;;;7.47;;
2646;SDS011;1333;50.958;6.770;2023-09-30T04:15:17;11.50;;;7.70;;
2646;SDS011;1333;50.958;6.770;2023-09-30T04:17:43;11.43;;;5.43;;
2646;SDS011;1333;50.958;6.770;2023-09-30T04:20:09;9.47;;;5.30;;
2646;SDS011;1333;50.958;6.770;2023-09-30T04:22:36;11.80;;;4.53;;
2646;SDS011;1333;50.958;6.770;2023-09-30T04:25:02;8.00;;;4.83;;
2646;SDS011;1333;50.958;6.770;2023-09-30T04:27:33;7.10;;;4.47;;
2646;SDS011;1333;50.958;6.770;2023-09-30T04:29:58;8.07;;;5.43;;
2646;SDS011;1333;50.958;6.770;2023-09-30T04:32:24;7.50;;;5.10;;
2646;SDS011;1333;50.958;6.770;2023-09-30T04:34:52;9.27;;;4.90;;
2646;SDS011;1333;50.958;6.770;2023-09-30T04:37:18;8.33;;;4.67;;
2646;SDS011;1333;50.958;6.770;2023-09-30T04:39:44;6.87;;;5.70;;
2646;SDS011;1333;50.958;6.770;2023-09-30T04:42:09;19.50;;;6.00;;
2646;SDS011;1333;50.958;6.770;2023-09-30T04:44:36;6.50;;;5.47;;
2646;SDS011;1333;50.958;6.770;2023-09-30T04:47:03;9.30;;;5.70;;
2646;SDS011;1333;50.958;6.770;2023-09-30T04:49:29;11.33;;;4.53;;
2646;SDS011;1333;50.958;6.770;2023-09-30T04:51:54;7.50;;;4.63;;
2646;SDS011;1333;50.958;6.770;2023-09-30T04:54:20;11.03;;;4.93;;
2646;SDS011;1333;50.958;6.770;2023-09-30T04:56:46;8.23;;;4.80;;
2646;SDS011;1333;50.958;6.770;2023-09-30T04:59:12;15.90;;;7.70;;
2646;SDS011;1333;50.958;6.770;2023-09-30T05:01:38;10.10;;;6.60;;
2646;SDS011;1333;50.958;6.770;2023-09-30T05:04:04;6.97;;;5.30;;
2646;SDS011;1333;50.958;6.770;2023-09-30T05:06:30;11.60;;;5.97;;
2646;SDS011;1333;50.958;6.770;2023-09-30T05:08:57;7.80;;;5.80;;
2646;SDS011;1333;50.958;6.770;2023-09-30T05:11:23;10.53;;;6.00;;
2646;SDS011;1333;50.958;6.770;2023-09-30T05:13:49;10.27;;;5.00;;
2646;SDS011;1333;50.958;6.770;2023-09-30T05:16:15;10.13;;;5.77;;
2646;SDS011;1333;50.958;6.770;2023-09-30T05:18:42;9.93;;;6.67;;
2646;SDS011;1333;50.958;6.770;2023-09-30T05:21:08;16.40;;;6.90;;
2646;SDS011;1333;50.958;6.770;2023-09-30T05:23:33;8.67;;;5.90;;
2646;SDS011;1333;50.958;6.770;2023-09-30T05:25:59;9.60;;;6.43;;
2646;SDS011;1333;50.958;6.770;2023-09-30T05:28:25;7.93;;;6.03;;
2646;SDS011;1333;50.958;6.770;2023-09-30T05:30:52;10.50;;;5.97;;
2646;SDS011;1333;50.958;6.770;2023-09-30T05:33:18;16.77;;;6.93;;
2646;SDS011;1333;50.958;6.770;2023-09-30T05:35:43;11.87;;;6.67;;
2646;SDS011;1333;50.958;6.770;2023-09-30T05:38:09;11.33;;;7.27;;
2646;SDS011;1333;50.958;6.770;2023-09-30T05:40:35;10.97;;;7.03;;
2646;SDS011;1333;50.958;6.770;2023-09-30T05:43:01;8.67;;;5.40;;
2646;SDS011;1333;50.958;6.770;2023-09-30T05:45:27;16.10;;;6.17;;
2646;SDS011;1333;50.958;6.770;2023-09-30T05:47:53;12.93;;;6.57;;
2646;SDS011;1333;50.958;6.770;2023-09-30T05:50:21;14.30;;;6.40;;
2646;SDS011;1333;50.958;6.770;2023-09-30T05:52:51;9.60;;;6.60;;
2646;SDS011;1333;50.958;6.770;2023-09-30T05:55:18;12.87;;;7.00;;
2646;SDS011;1333;50.958;6.770;2023-09-30T05:57:45;10.50;;;6.90;;
2646;SDS011;1333;50.958;6.770;2023-09-30T06:00:14;13.13;;;6.33;;
2646;SDS011;1333;50.958;6.770;2023-09-30T06:02:46;17.13;;;7.20;;
2646;SDS011;1333;50.958;6.770;2023-09-30T06:05:16;14.20;;;8.23;;
2646;SDS011;1333;50.958;6.770;2023-09-30T06:07:43;13.43;;;6.20;;
2646;SDS011;1333;50.958;6.770;2023-09-30T06:10:10;9.20;;;5.60;;
2646;SDS011;1333;50.958;6.770;2023-09-30T06:12:36;12.53;;;6.40;;
2646;SDS011;1333;50.958;6.770;2023-09-30T06:15:02;12.70;;;6.80;;
2646;SDS011;1333;50.958;6.770;2023-09-30T06:17:28;11.30;;;7.90;;
2646;SDS011;1333;50.958;6.770;2023-09-30T06:19:53;11.37;;;7.23;;
2646;SDS011;1333;50.958;6.770;2023-09-30T06:22:20;12.87;;;6.63;;
2646;SDS011;1333;50.958;6.770;2023-09-30T06:24:46;12.70;;;7.57;;
2646;SDS011;1333;50.958;6.770;2023-09-30T06:27:13;11.03;;;5.90;;
2646;SDS011;1333;50.958;6.770;2023-09-30T06:29:38;11.13;;;7.63;;
2646;SDS011;1333;50.958;6.770;2023-09-30T06:32:07;14.23;;;7.17;;
2646;SDS011;1333;50.958;6.770;2023-09-30T06:34:32;9.77;;;7.40;;
2646;SDS011;1333;50.958;6.770;2023-09-30T06:36:59;9.33;;;6.33;;
2646;SDS011;1333;50.958;6.770;2023-09-30T06:39:25;9.63;;;6.57;;
2646;SDS011;1333;50.958;6.770;2023-09-30T06:41:50;16.77;;;7.27;;
2646;SDS011;1333;50.958;6.770;2023-09-30T06:44:16;13.73;;;7.43;;
2646;SDS011;1333;50.958;6.770;2023-09-30T06:46:42;13.37;;;9.13;;
2646;SDS011;1333;50.958;6.770;2023-09-30T06:49:08;10.30;;;7.17;;
2646;SDS011;1333;50.958;6.770;2023-09-30T06:51:34;13.27;;;8.53;;
2646;SDS011;1333;50.958;6.770;2023-09-30T06:53:59;14.93;;;7.77;;
2646;SDS011;1333;50.958;6.770;2023-09-30T06:56:25;11.67;;;7.13;;
2646;SDS011;1333;50.958;6.770;2023-09-30T06:58:51;12.03;;;7.77;;
2646;SDS011;1333;50.958;6.770;2023-09-30T07:01:17;11.70;;;7.80;;
2646;SDS011;1333;50.958;6.770;2023-09-30T07:03:42;12.27;;;7.70;;
2646;SDS011;1333;50.958;6.770;2023-09-30T07:06:08;9.77;;;6.60;;
2646;SDS011;1333;50.958;6.770;2023-09-30T07:08:34;11.87;;;6.53;;
2646;SDS011;1333;50.958;6.770;2023-09-30T07:10:59;11.00;;;7.33;;
2646;SDS011;1333;50.958;6.770;2023-09-30T07:13:25;11.60;;;7.03;;
2646;SDS011;1333;50.958;6.770;2023-09-30T07:15:50;9.37;;;7.27;;
2646;SDS011;1333;50.958;6.770;2023-09-30T07:18:16;9.43;;;7.50;;
2646;SDS011;1333;50.958;6.770;2023-09-30T07:20:42;13.10;;;8.67;;
2646;SDS011;1333;50.958;6.770;2023-09-30T07:23:08;11.37;;;9.23;;
2646;SDS011;1333;50.958;6.770;2023-09-30T07:25:34;14.03;;;8.10;;
2646;SDS011;1333;50.958;6.770;2023-09-30T07:28:00;9.83;;;8.00;;
2646;SDS011;1333;50.958;6.770;2023-09-30T07:30:26;9.50;;;7.20;;
2646;SDS011;1333;50.958;6.770;2023-09-30T07:32:52;11.97;;;7.60;;
2646;SDS011;1333;50.958;6.770;2023-09-30T07:35:17;10.43;;;7.33;;
2646;SDS011;1333;50.958;6.770;2023-09-30T07:37:43;12.17;;;7.47;;
2646;SDS011;1333;50.958;6.770;2023-09-30T07:40:09;8.60;;;7.00;;
2646;SDS011;1333;50.958;6.770;2023-09-30T07:42:35;14.50;;;7.67;;
2646;SDS011;1333;50.958;6.770;2023-09-30T07:45:01;10.03;;;7.70;;
2646;SDS011;1333;50.958;6.770;2023-09-30T07:47:29;10.73;;;7.30;;
2646;SDS011;1333;50.958;6.770;2023-09-30T07:49:56;11.47;;;6.90;;
2646;SDS011;1333;50.958;6.770;2023-09-30T07:52:21;15.13;;;8.53;;
2646;SDS011;1333;50.958;6.770;2023-09-30T07:54:47;10.33;;;7.87;;
2646;SDS011;1333;50.958;6.770;2023-09-30T07:57:12;10.97;;;7.10;;
2646;SDS011;1333;50.958;6.770;2023-09-30T07:59:38;16.23;;;6.37;;
2646;SDS011;1333;50.958;6.770;2023-09-30T08:02:03;9.00;;;6.63;;
2646;SDS011;1333;50.958;6.770;2023-09-30T08:04:30;10.87;;;6.63;;
2646;SDS011;1333;50.958;6.770;2023-09-30T08:06:56;8.37;;;5.40;;
2646;SDS011;1333;50.958;6.770;2023-09-30T08:09:21;7.60;;;5.97;;
2646;SDS011;1333;50.958;6.770;2023-09-30T08:11:48;7.70;;;5.00;;
2646;SDS011;1333;50.958;6.770;2023-09-30T08:14:15;6.90;;;5.83;;
2646;SDS011;1333;50.958;6.770;2023-09-30T08:16:41;7.53;;;5.70;;
2646;SDS011;1333;50.958;6.770;2023-09-30T08:19:07;6.30;;;5.13;;
2646;SDS011;1333;50.958;6.770;2023-09-30T08:21:33;8.60;;;5.50;;
2646;SDS011;1333;50.958;6.770;2023-09-30T08:23:59;8.77;;;4.50;;
2646;SDS011;1333;50.958;6.770;2023-09-30T08:26:25;3.93;;;3.60;;
2646;SDS011;1333;50.958;6.770;2023-09-30T08:28:51;3.47;;;2.83;;
2646;SDS011;1333;50.958;6.770;2023-09-30T08:31:17;4.10;;;3.70;;
2646;SDS011;1333;50.958;6.770;2023-09-30T08:33:42;3.40;;;3.10;;
2646;SDS011;1333;50.958;6.770;2023-09-30T08:36:10;6.40;;;3.93;;
2646;SDS011;1333;50.958;6.770;2023-09-30T08:38:37;2.33;;;2.13;;
2646;SDS011;1333;50.958;6.770;2023-09-30T08:41:04;2.73;;;2.20;;
2646;SDS011;1333;50.958;6.770;2023-09-30T08:43:30;3.80;;;3.50;;
2646;SDS011;1333;50.958;6.770;2023-09-30T08:45:59;3.37;;;3.07;;
2646;SDS011;1333;50.958;6.770;2023-09-30T08:48:27;4.70;;;3.17;;
2646;SDS011;1333;50.958;6.770;2023-09-30T08:50:55;4.00;;;3.50;;
2646;SDS011;1333;50.958;6.770;2023-09-30T08:53:22;3.87;;;3.53;;
2646;SDS011;1333;50.958;6.770;2023-09-30T08:55:49;2.63;;;2.43;;
2646;SDS011;1333;50.958;6.770;2023-09-30T08:58:19;4.23;;;2.90;;
2646;SDS011;1333;50.958;6.770;2023-09-30T09:00:45;4.20;;;3.37;;
2646;SDS011;1333;50.958;6.770;2023-09-30T09:03:12;2.90;;;2.53;;
2646;SDS011;1333;50.958;6.770;2023-09-30T09:05:37;4.23;;;2.50;;
2646;SDS011;1333;50.958;6.770;2023-09-30T09:08:03;5.57;;;3.63;;
2646;SDS011;1333;50.958;6.770;2023-09-30T09:10:29;5.00;;;3.90;;
2646;SDS011;1333;50.958;6.770;2023-09-30T09:12:55;4.30;;;3.03;;
2646;SDS011;1333;50.958;6.770;2023-09-30T09:15:25;2.90;;;2.70;;
2646;SDS011;1333;50.958;6.770;2023-09-30T09:17:53;3.73;;;2.83;;
2646;SDS011;1333;50.958;6.770;2023-09-30T09:20:20;3.40;;;2.50;;
2646;SDS011;1333;50.958;6.770;2023-09-30T09:22:48;3.73;;;3.43;;
2646;SDS011;1333;50.958;6.770;2023-09-30T09:25:17;4.40;;;3.20;;
2646;SDS011;1333;50.958;6.770;2023-09-30T09:27:43;5.20;;;3.17;;
2646;SDS011;1333;50.958;6.770;2023-09-30T09:33:00;3.73;;;3.40;;
2646;SDS011;1333;50.958;6.770;2023-09-30T09:35:27;3.63;;;3.33;;
2646;SDS011;1333;50.958;6.770;2023-09-30T09:37:56;3.13;;;2.70;;
2646;SDS011;1333;50.958;6.770;2023-09-30T09:40:23;5.00;;;2.87;;
2646;SDS011;1333;50.958;6.770;2023-09-30T09:42:50;3.83;;;3.10;;
2646;SDS011;1333;50.958;6.770;2023-09-30T09:45:18;3.40;;;3.10;;
2646;SDS011;1333;50.958;6.770;2023-09-30T09:47:49;3.40;;;3.10;;
2646;SDS011;1333;50.958;6.770;2023-09-30T09:50:16;3.70;;;2.80;;
2646;SDS011;1333;50.958;6.770;2023-09-30T09:52:43;3.37;;;3.07;;
2646;SDS011;1333;50.958;6.770;2023-09-30T09:55:12;3.00;;;2.40;;
2646;SDS011;1333;50.958;6.770;2023-09-30T09:57:40;5.20;;;4.57;;
2646;SDS011;1333;50.958;6.770;2023-09-30T10:00:06;3.13;;;2.83;;
2646;SDS011;1333;50.958;6.770;2023-09-30T10:02:39;3.40;;;2.80;;
2646;SDS011;1333;50.958;6.770;2023-09-30T10:05:05;3.03;;;2.40;;
2646;SDS011;1333;50.958;6.770;2023-09-30T10:10:17;2.53;;;2.20;;
2646;SDS011;1333;50.958;6.770;2023-09-30T10:12:44;4.60;;;2.60;;
2646;SDS011;1333;50.958;6.770;2023-09-30T10:18:01;4.57;;;2.80;;
2646;SDS011;1333;50.958;6.770;2023-09-30T10:20:31;2.30;;;2.10;;
2646;SDS011;1333;50.958;6.770;2023-09-30T10:25:48;2.83;;;2.27;;
2646;SDS011;1333;50.958;6.770;2023-09-30T10:28:58;5.80;;;4.13;;
2646;SDS011;1333;50.958;6.770;2023-09-30T10:31:15;3.50;;;3.20;;
2646;SDS011;1333;50.958;6.770;2023-09-30T10:36:31;4.27;;;2.50;;
2646;SDS011;1333;50.958;6.770;2023-09-30T10:39:03;2.57;;;2.37;;
2646;SDS011;1333;50.958;6.770;2023-09-30T10:46:54;4.50;;;2.67;;
2646;SDS011;1333;50.958;6.770;2023-09-30T10:51:53;4.97;;;2.53;;
2646;SDS011;1333;50.958;6.770;2023-09-30T10:54:26;3.47;;;2.83;;
2646;SDS011;1333;50.958;6.770;2023-09-30T10:56:53;3.27;;;2.97;;
2646;SDS011;1333;50.958;6.770;2023-09-30T10:59:19;3.40;;;2.73;;
2646;SDS011;1333;50.958;6.770;2023-09-30T11:01:47;2.77;;;2.50;;
2646;SDS011;1333;50.958;6.770;2023-09-30T11:04:13;4.60;;;3.37;;
2646;SDS011;1333;50.958;6.770;2023-09-30T11:06:40;3.53;;;2.63;;
2646;SDS011;1333;50.958;6.770;2023-09-30T11:09:07;4.13;;;2.80;;
2646;SDS011;1333;50.958;6.770;2023-09-30T11:11:40;3.63;;;2.60;;
2646;SDS011;1333;50.958;6.770;2023-09-30T11:16:56;2.87;;;2.63;;
2646;SDS011;1333;50.958;6.770;2023-09-30T11:19:27;3.30;;;3.00;;
2646;SDS011;1333;50.958;6.770;2023-09-30T11:22:10;4.47;;;4.17;;
2646;SDS011;1333;50.958;6.770;2023-09-30T11:24:36;3.40;;;3.10;;
2646;SDS011;1333;50.958;6.770;2023-09-30T11:27:02;4.70;;;4.30;;
2646;SDS011;1333;50.958;6.770;2023-09-30T11:29:28;3.07;;;2.63;;
2646;SDS011;1333;50.958;6.770;2023-09-30T11:31:53;3.13;;;2.70;;
2646;SDS011;1333;50.958;6.770;2023-09-30T11:34:20;4.90;;;3.13;;
2646;SDS011;1333;50.958;6.770;2023-09-30T11:37:00;3.30;;;2.37;;
2646;SDS011;1333;50.958;6.770;2023-09-30T11:39:27;4.30;;;2.60;;
2646;SDS011;1333;50.958;6.770;2023-09-30T11:41:54;3.60;;;3.07;;
2646;SDS011;1333;50.958;6.770;2023-09-30T11:44:21;3.53;;;2.93;;
2646;SDS011;1333;50.958;6.770;2023-09-30T11:46:50;3.90;;;3.50;;
2646;SDS011;1333;50.958;6.770;2023-09-30T11:49:27;3.10;;;2.80;;
2646;SDS011;1333;50.958;6.770;2023-09-30T11:52:09;3.57;;;3.20;;
2646;SDS011;1333;50.958;6.770;2023-09-30T11:54:37;3.47;;;3.17;;
2646;SDS011;1333;50.958;6.770;2023-09-30T11:57:08;4.10;;;3.70;;
2646;SDS011;1333;50.958;6.770;2023-09-30T11:59:35;3.97;;;3.30;;
2646;SDS011;1333;50.958;6.770;2023-09-30T12:02:01;3.20;;;3.00;;
2646;SDS011;1333;50.958;6.770;2023-09-30T12:04:28;3.50;;;3.20;;
2646;SDS011;1333;50.958;6.770;2023-09-30T12:06:54;2.70;;;2.53;;
2646;SDS011;1333;50.958;6.770;2023-09-30T12:09:20;3.73;;;3.20;;
2646;SDS011;1333;50.958;6.770;2023-09-30T12:11:51;3.10;;;2.80;;
2646;SDS011;1333;50.958;6.770;2023-09-30T12:14:19;3.07;;;2.77;;
2646;SDS011;1333;50.958;6.770;2023-09-30T12:16:46;3.63;;;2.90;;
2646;SDS011;1333;50.958;6.770;2023-09-30T12:19:13;4.30;;;2.77;;
2646;SDS011;1333;50.958;6.770;2023-09-30T12:21:40;3.10;;;2.90;;
2646;SDS011;1333;50.958;6.770;2023-09-30T12:24:06;3.33;;;3.03;;
2646;SDS011;1333;50.958;6.770;2023-09-30T12:26:34;3.63;;;3.33;;
2646;SDS011;1333;50.958;6.770;2023-09-30T12:29:00;4.07;;;3.77;;
2646;SDS011;1333;50.958;6.770;2023-09-30T12:31:25;4.40;;;2.93;;
2646;SDS011;1333;50.958;6.770;2023-09-30T12:33:51;4.27;;;2.87;;
2646;SDS011;1333;50.958;6.770;2023-09-30T12:36:18;7.20;;;2.80;;
2646;SDS011;1333;50.958;6.770;2023-09-30T12:38:44;4.10;;;2.20;;
2646;SDS011;1333;50.958;6.770;2023-09-30T12:41:10;3.40;;;3.10;;
2646;SDS011;1333;50.958;6.770;2023-09-30T12:43:36;4.13;;;2.40;;
2646;SDS011;1333;50.958;6.770;2023-09-30T12:46:02;3.70;;;2.30;;
2646;SDS011;1333;50.958;6.770;2023-09-30T12:48:29;3.40;;;2.50;;
2646;SDS011;1333;50.958;6.770;2023-09-30T12:50:55;2.43;;;2.23;;
2646;SDS011;1333;50.958;6.770;2023-09-30T12:53:20;2.90;;;2.60;;
2646;SDS011;1333;50.958;6.770;2023-09-30T12:55:46;3.97;;;2.43;;
2646;SDS011;1333;50.958;6.770;2023-09-30T12:58:12;3.20;;;2.80;;
2646;SDS011;1333;50.958;6.770;2023-09-30T13:00:37;2.80;;;2.60;;
2646;SDS011;1333;50.958;6.770;2023-09-30T13:03:03;3.73;;;2.57;;
2646;SDS011;1333;50.958;6.770;2023-09-30T13:05:29;2.97;;;2.67;;
2646;SDS011;1333;50.958;6.770;2023-09-30T13:07:55;4.13;;;3.73;;
2646;SDS011;1333;50.958;6.770;2023-09-30T13:10:21;2.77;;;2.57;;
2646;SDS011;1333;50.958;6.770;2023-09-30T13:12:50;4.10;;;2.30;;
2646;SDS011;1333;50.958;6.770;2023-09-30T13:15:17;5.40;;;2.70;;
2646;SDS011;1333;50.958;6.770;2023-09-30T13:17:43;8.83;;;7.60;;
2646;SDS011;1333;50.958;6.770;2023-09-30T13:20:09;3.00;;;2.70;;
2646;SDS011;1333;50.958;6.770;2023-09-30T13:22:36;9.93;;;9.03;;
2646;SDS011;1333;50.958;6.770;2023-09-30T13:25:03;4.20;;;3.80;;
2646;SDS011;1333;50.958;6.770;2023-09-30T13:27:37;3.87;;;3.57;;
2646;SDS011;1333;50.958;6.770;2023-09-30T13:30:03;3.77;;;2.80;;
2646;SDS011;1333;50.958;6.770;2023-09-30T13:32:29;2.47;;;2.20;;
2646;SDS011;1333;50.958;6.770;2023-09-30T13:34:55;2.53;;;2.33;;
2646;SDS011;1333;50.958;6.770;2023-09-30T13:37:22;2.57;;;2.27;;
2646;SDS011;1333;50.958;6.770;2023-09-30T13:39:47;2.17;;;2.00;;
2646;SDS011;1333;50.958;6.770;2023-09-30T13:42:15;2.73;;;2.17;;
2646;SDS011;1333;50.958;6.770;2023-09-30T13:44:40;2.90;;;2.60;;
2646;SDS011;1333;50.958;6.770;2023-09-30T13:47:06;3.33;;;2.10;;
2646;SDS011;1333;50.958;6.770;2023-09-30T13:49:33;4.43;;;2.20;;
2646;SDS011;1333;50.958;6.770;2023-09-30T13:51:58;3.53;;;2.63;;
2646;SDS011;1333;50.958;6.770;2023-09-30T13:54:24;2.47;;;2.27;;
2646;SDS011;1333;50.958;6.770;2023-09-30T13:56:49;2.50;;;2.30;;
2646;SDS011;1333;50.958;6.770;2023-09-30T13:59:15;2.30;;;1.93;;
2646;SDS011;1333;50.958;6.770;2023-09-30T14:01:41;2.33;;;2.13;;
2646;SDS011;1333;50.958;6.770;2023-09-30T14:04:06;2.30;;;1.73;;
2646;SDS011;1333;50.958;6.770;2023-09-30T14:06:35;2.27;;;1.63;;
2646;SDS011;1333;50.958;6.770;2023-09-30T14:09:01;3.00;;;2.20;;
2646;SDS011;1333;50.958;6.770;2023-09-30T14:11:27;2.60;;;1.73;;
2646;SDS011;1333;50.958;6.770;2023-09-30T14:13:55;3.37;;;2.23;;
2646;SDS011;1333;50.958;6.770;2023-09-30T14:16:21;3.33;;;2.00;;
2646;SDS011;1333;50.958;6.770;2023-09-30T14:18:46;2.70;;;1.67;;
2646;SDS011;1333;50.958;6.770;2023-09-30T14:21:14;2.43;;;1.90;;
2646;SDS011;1333;50.958;6.770;2023-09-30T14:23:40;5.63;;;2.20;;
2646;SDS011;1333;50.958;6.770;2023-09-30T14:26:05;3.20;;;1.93;;
2646;SDS011;1333;50.958;6.770;2023-09-30T14:28:35;3.77;;;2.10;;
2646;SDS011;1333;50.958;6.770;2023-09-30T14:31:04;3.53;;;2.23;;
2646;SDS011;1333;50.958;6.770;2023-09-30T14:33:30;3.47;;;1.73;;
2646;SDS011;1333;50.958;6.770;2023-09-30T14:35:56;3.00;;;1.80;;
2646;SDS011;1333;50.958;6.770;2023-09-30T14:38:22;3.03;;;1.43;;
2646;SDS011;1333;50.958;6.770;2023-09-30T14:40:48;2.77;;;1.70;;
2646;SDS011;1333;50.958;6.770;2023-09-30T14:43:15;3.93;;;2.90;;
2646;SDS011;1333;50.958;6.770;2023-09-30T14:45:40;4.23;;;3.70;;
2646;SDS011;1333;50.958;6.770;2023-09-30T14:48:07;3.90;;;3.60;;
2646;SDS011;1333;50.958;6.770;2023-09-30T14:50:34;4.00;;;3.67;;
2646;SDS011;1333;50.958;6.770;2023-09-30T14:53:00;8.43;;;7.40;;
2646;SDS011;1333;50.958;6.770;2023-09-30T14:55:25;4.50;;;3.80;;
2646;SDS011;1333;50.958;6.770;2023-09-30T14:57:51;4.80;;;3.70;;
2646;SDS011;1333;50.958;6.770;2023-09-30T15:00:17;3.50;;;3.20;;
2646;SDS011;1333;50.958;6.770;2023-09-30T15:02:42;3.93;;;3.10;;
2646;SDS011;1333;50.958;6.770;2023-09-30T15:05:08;5.70;;;3.50;;
2646;SDS011;1333;50.958;6.770;2023-09-30T15:07:34;3.67;;;2.87;;
2646;SDS011;1333;50.958;6.770;2023-09-30T15:10:02;6.53;;;5.17;;
2646;SDS011;1333;50.958;6.770;2023-09-30T15:12:29;4.23;;;3.57;;
2646;SDS011;1333;50.958;6.770;2023-09-30T15:14:55;4.67;;;2.30;;
2646;SDS011;1333;50.958;6.770;2023-09-30T15:17:20;3.47;;;2.17;;
2646;SDS011;1333;50.958;6.770;2023-09-30T15:19:46;3.20;;;2.83;;
2646;SDS011;1333;50.958;6.770;2023-09-30T15:22:11;3.20;;;2.37;;
2646;SDS011;1333;50.958;6.770;2023-09-30T15:24:37;3.07;;;2.60;;
2646;SDS011;1333;50.958;6.770;2023-09-30T15:27:02;2.27;;;2.07;;
2646;SDS011;1333;50.958;6.770;2023-09-30T15:29:28;2.40;;;1.80;;
2646;SDS011;1333;50.958;6.770;2023-09-30T15:31:53;2.83;;;2.20;;
2646;SDS011;1333;50.958;6.770;2023-09-30T15:34:19;2.10;;;1.73;;
2646;SDS011;1333;50.958;6.770;2023-09-30T15:36:44;4.00;;;2.43;;